Time;durP1;ratioP1;P1;durP2;ratioP2;P2;SDS_P1;SDS_P2;PMS_P1;PMS_P2;Temp;Humidity;BMP_temperature;BMP_pressure;BME280_temperature;BME280_humidity;BME280_pressure;Samples;Min_cycle;Max_cycle;Signal;HPM_P1;HPM_P2
2022/05/03 00:01:09;;;;;;;8.48;2.60;;;;;;;;;;5011559;28;20046;-73
2022/05/03 00:03:53;;;;;;;5.80;2.35;;;;;;;;;;5014796;28;20108;-73
2022/05/03 00:06:39;;;;;;;5.05;2.05;;;;;;;;;;5018699;28;20709;-73
2022/05/03 00:09:07;;;;;;;7.30;1.95;;;;;;;;;;5012268;28;20464;-73
2022/05/03 00:11:36;;;;;;;6.38;2.10;;;;;;;;;;5013570;28;20586;-73
2022/05/03 00:14:18;;;;;;;5.55;1.88;;;;;;;;;;5016139;28;20092;-73
2022/05/03 00:16:45;;;;;;;4.20;1.60;;;;;;;;;;5012063;28;20136;-73
2022/05/03 00:19:11;;;;;;;4.50;2.10;;;;;;;;;;5010690;28;20026;-73
2022/05/03 00:21:38;;;;;;;6.82;2.50;;;;;;;;;;5017707;28;20048;-73
2022/05/03 00:24:06;;;;;;;8.30;2.47;;;;;;;;;;5014819;28;20621;-73
2022/05/03 00:26:32;;;;;;;6.68;3.65;;;;;;;;;;5015596;28;20165;-72
2022/05/03 00:28:58;;;;;;;9.35;4.28;;;;;;;;;;5018648;28;20023;-73
2022/05/03 00:31:25;;;;;;;8.13;4.10;;;;;;;;;;5018096;28;20042;-73
2022/05/03 00:33:51;;;;;;;11.82;4.55;;;;;;;;;;5017006;28;20025;-73
2022/05/03 00:36:17;;;;;;;15.57;4.60;;;;;;;;;;5015316;28;20045;-73
2022/05/03 00:38:43;;;;;;;8.45;4.10;;;;;;;;;;5028281;28;20044;-73
2022/05/03 00:41:11;;;;;;;8.88;3.78;;;;;;;;;;5023027;28;20088;-73
2022/05/03 00:43:41;;;;;;;5.60;2.08;;;;;;;;;;5024914;28;20654;-73
2022/05/03 00:46:09;;;;;;;3.97;1.88;;;;;;;;;;5020661;28;20133;-73
2022/05/03 00:48:46;;;;;;;4.22;1.70;;;;;;;;;;5019484;28;20502;-73
2022/05/03 00:51:16;;;;;;;4.93;2.15;;;;;;;;;;5018229;28;20810;-73
2022/05/03 00:53:58;;;;;;;5.25;2.13;;;;;;;;;;5024132;28;20104;-73
2022/05/03 00:56:24;;;;;;;6.50;2.30;;;;;;;;;;5019554;28;20140;-73
2022/05/03 00:58:53;;;;;;;5.00;2.08;;;;;;;;;;5021163;28;20108;-73
2022/05/03 01:01:19;;;;;;;6.20;1.88;;;;;;;;;;5015673;28;20375;-73
2022/05/03 01:03:48;;;;;;;9.07;2.20;;;;;;;;;;5022636;28;20041;-73
2022/05/03 01:06:29;;;;;;;6.07;2.17;;;;;;;;;;5017427;28;20053;-73
2022/05/03 01:08:55;;;;;;;4.32;1.73;;;;;;;;;;5018672;28;20383;-73
2022/05/03 01:11:25;;;;;;;5.38;1.90;;;;;;;;;;5018445;28;20030;-73
2022/05/03 01:14:01;;;;;;;7.18;2.05;;;;;;;;;;5015270;28;20040;-73
2022/05/03 01:16:51;;;;;;;6.50;2.67;;;;;;;;;;5015660;28;20742;-73
2022/05/03 01:19:32;;;;;;;4.50;1.92;;;;;;;;;;5020757;28;20041;-73
2022/05/03 01:22:08;;;;;;;9.18;2.10;;;;;;;;;;5019619;28;20110;-73
2022/05/03 01:24:47;;;;;;;8.02;2.47;;;;;;;;;;5019557;28;20057;-73
2022/05/03 01:27:24;;;;;;;6.30;2.28;;;;;;;;;;5027250;28;20566;-73
2022/05/03 01:29:51;;;;;;;7.60;2.38;;;;;;;;;;5017179;28;20038;-72
2022/05/03 01:32:19;;;;;;;8.27;2.67;;;;;;;;;;5017517;28;20610;-73
2022/05/03 01:34:51;;;;;;;7.13;2.40;;;;;;;;;;5024047;28;20029;-73
2022/05/03 01:37:46;;;;;;;4.33;1.63;;;;;;;;;;5015305;28;20037;-73
2022/05/03 01:40:17;;;;;;;5.68;2.38;;;;;;;;;;5021312;28;20711;-73
2022/05/03 01:42:46;;;;;;;6.07;2.20;;;;;;;;;;5023635;28;20033;-73
2022/05/03 01:45:12;;;;;;;5.00;2.30;;;;;;;;;;5026778;28;20056;-73
2022/05/03 01:47:53;;;;;;;4.68;1.88;;;;;;;;;;5014391;28;20030;-73
2022/05/03 01:50:30;;;;;;;4.70;1.90;;;;;;;;;;5016748;28;20075;-73
2022/05/03 01:53:15;;;;;;;5.82;1.80;;;;;;;;;;5020333;28;20030;-73
2022/05/03 01:56:00;;;;;;;8.13;2.17;;;;;;;;;;5020353;28;20091;-73
2022/05/03 01:58:35;;;;;;;3.63;1.90;;;;;;;;;;5018900;28;20041;-73
2022/05/03 02:01:05;;;;;;;6.20;2.05;;;;;;;;;;5012334;28;20049;-72
2022/05/03 02:03:51;;;;;;;6.65;2.05;;;;;;;;;;5016298;28;20527;-73
2022/05/03 02:06:22;;;;;;;8.13;2.13;;;;;;;;;;5017296;28;20038;-73
2022/05/03 02:09:05;;;;;;;6.20;2.67;;;;;;;;;;5019713;28;20026;-73
2022/05/03 02:11:40;;;;;;;4.53;1.92;;;;;;;;;;5014974;28;20037;-73
2022/05/03 02:17:00;;;;;;;7.22;2.40;;;;;;;;;;5012830;28;20052;-73
2022/05/03 02:19:26;;;;;;;7.95;2.83;;;;;;;;;;5017600;28;20026;-73
2022/05/03 02:21:59;;;;;;;7.78;2.22;;;;;;;;;;5011023;28;20103;-73
2022/05/03 02:24:24;;;;;;;;;;;;;;;;;;5012950;28;20033;-72
2022/05/03 02:26:55;;;;;;;8.10;1.98;;;;;;;;;;5018299;28;19936;-73
2022/05/03 02:29:33;;;;;;;5.38;2.38;;;;;;;;;;5011955;28;20049;-72
2022/05/03 02:32:03;;;;;;;8.27;2.22;;;;;;;;;;5011283;28;20030;-73
2022/05/03 02:34:43;;;;;;;6.55;2.80;;;;;;;;;;5016014;28;20447;-73
2022/05/03 02:37:17;;;;;;;8.07;2.47;;;;;;;;;;5016156;28;20042;-73
2022/05/03 02:40:00;;;;;;;6.50;2.85;;;;;;;;;;5014420;28;20814;-73
2022/05/03 02:42:26;;;;;;;;;;;;;;;;;;5011964;28;20030;-73
2022/05/03 02:44:56;;;;;;;8.27;3.25;;;;;;;;;;5023204;28;19938;-73
2022/05/03 02:47:34;;;;;;;8.57;2.50;;;;;;;;;;5010835;28;20038;-73
2022/05/03 02:50:06;;;;;;;6.10;2.58;;;;;;;;;;5017892;28;20475;-73
2022/05/03 02:53:02;;;;;;;7.68;3.13;;;;;;;;;;5013710;28;20029;-72
2022/05/03 02:55:37;;;;;;;10.00;2.90;;;;;;;;;;5002678;28;20045;-73
2022/05/03 02:58:06;;;;;;;7.32;3.05;;;;;;;;;;5011260;28;20036;-73
2022/05/03 03:03:43;;;;;;;6.97;3.38;;;;;;;;;;5008851;28;20129;-72
2022/05/03 03:06:18;;;;;;;8.10;3.53;;;;;;;;;;5018595;28;20037;-73
2022/05/03 03:08:45;;;;;;;10.38;3.28;;;;;;;;;;5007586;28;20057;-72
2022/05/03 03:11:24;;;;;;;8.02;3.38;;;;;;;;;;5015064;28;20052;-73
2022/05/03 03:14:20;;;;;;;7.25;4.28;;;;;;;;;;5011882;28;20475;-72
2022/05/03 03:16:54;;;;;;;10.75;5.30;;;;;;;;;;5021669;28;20060;-72
2022/05/03 03:19:38;;;;;;;12.82;6.80;;;;;;;;;;5014940;28;20029;-73
2022/05/03 03:22:12;;;;;;;13.07;6.88;;;;;;;;;;5010931;28;20514;-73
2022/05/03 03:24:39;;;;;;;15.77;7.78;;;;;;;;;;5012665;28;20033;-73
2022/05/03 03:27:06;;;;;;;13.85;6.85;;;;;;;;;;5018109;28;20049;-73
2022/05/03 03:29:32;;;;;;;13.15;8.02;;;;;;;;;;5012129;28;20096;-73
2022/05/03 03:32:02;;;;;;;13.32;6.97;;;;;;;;;;5007307;28;20038;-73
2022/05/03 03:34:28;;;;;;;14.85;7.15;;;;;;;;;;5012028;28;20110;-73
2022/05/03 03:37:01;;;;;;;13.13;6.50;;;;;;;;;;5015185;28;20064;-73
2022/05/03 03:39:31;;;;;;;11.60;4.97;;;;;;;;;;5010902;28;20073;-73
2022/05/03 03:42:07;;;;;;;18.80;5.88;;;;;;;;;;5021301;28;20142;-73
2022/05/03 03:44:33;;;;;;;11.35;5.93;;;;;;;;;;5014745;28;20540;-73
2022/05/03 03:47:00;;;;;;;9.50;5.15;;;;;;;;;;5014478;28;20415;-73
2022/05/03 03:49:26;;;;;;;8.80;4.35;;;;;;;;;;5017843;28;20049;-72
2022/05/03 03:51:52;;;;;;;8.82;3.28;;;;;;;;;;5013355;28;20476;-73
2022/05/03 03:54:19;;;;;;;9.20;3.40;;;;;;;;;;5015108;28;20065;-73
2022/05/03 03:56:45;;;;;;;10.57;3.80;;;;;;;;;;5018674;28;20038;-72
2022/05/03 03:59:13;;;;;;;12.75;3.45;;;;;;;;;;5016688;28;20461;-73
2022/05/03 04:01:39;;;;;;;8.57;3.40;;;;;;;;;;5013417;28;20044;-73
2022/05/03 04:04:06;;;;;;;7.95;3.28;;;;;;;;;;5011958;28;20105;-73
2022/05/03 04:06:32;;;;;;;9.02;3.95;;;;;;;;;;5014075;28;20060;-73
2022/05/03 04:08:58;;;;;;;8.68;3.95;;;;;;;;;;5015726;28;20029;-73
2022/05/03 04:11:24;;;;;;;11.80;5.18;;;;;;;;;;5024287;28;20773;-73
2022/05/03 04:13:50;;;;;;;12.73;6.10;;;;;;;;;;5015003;28;20061;-73
2022/05/03 04:16:16;;;;;;;12.95;6.95;;;;;;;;;;5012151;28;20124;-72
2022/05/03 04:18:45;;;;;;;12.90;7.57;;;;;;;;;;5021173;28;20424;-73
2022/05/03 04:21:15;;;;;;;12.80;7.13;;;;;;;;;;5014542;28;20041;-73
2022/05/03 04:23:41;;;;;;;10.45;7.57;;;;;;;;;;5015101;28;20084;-74
2022/05/03 04:26:09;;;;;;;14.45;6.82;;;;;;;;;;5013576;28;20042;-73
2022/05/03 04:28:35;;;;;;;11.15;6.60;;;;;;;;;;5024324;28;20030;-73
2022/05/03 04:31:01;;;;;;;14.93;9.52;;;;;;;;;;5013068;28;20034;-73
2022/05/03 04:33:27;;;;;;;11.65;8.15;;;;;;;;;;5014889;28;20033;-73
2022/05/03 04:35:53;;;;;;;15.95;7.63;;;;;;;;;;5019935;28;20372;-73
2022/05/03 04:38:19;;;;;;;13.15;6.47;;;;;;;;;;5022950;28;20036;-73
2022/05/03 04:40:45;;;;;;;14.73;7.40;;;;;;;;;;5022858;28;20048;-73
2022/05/03 04:43:11;;;;;;;10.20;5.25;;;;;;;;;;5019546;28;20394;-73
2022/05/03 04:45:37;;;;;;;9.65;5.07;;;;;;;;;;5021286;28;20048;-73
2022/05/03 04:48:04;;;;;;;12.05;5.90;;;;;;;;;;5018235;28;20695;-74
2022/05/03 04:50:30;;;;;;;12.32;5.30;;;;;;;;;;5017490;28;20037;-73
2022/05/03 04:52:57;;;;;;;9.70;5.53;;;;;;;;;;5011010;28;20029;-72
2022/05/03 04:55:23;;;;;;;15.05;6.03;;;;;;;;;;5024488;28;20049;-73
2022/05/03 04:57:49;;;;;;;14.48;6.38;;;;;;;;;;5021731;28;20030;-73
2022/05/03 05:00:16;;;;;;;12.40;5.78;;;;;;;;;;5021490;28;20038;-73
2022/05/03 05:02:42;;;;;;;19.50;8.88;;;;;;;;;;5013321;28;20088;-72
2022/05/03 05:05:08;;;;;;;17.88;7.15;;;;;;;;;;5016665;28;20470;-73
2022/05/03 05:07:34;;;;;;;13.23;6.90;;;;;;;;;;5015751;28;20175;-73
2022/05/03 05:12:45;;;;;;;7.18;3.00;;;;;;;;;;5016100;28;20469;-73
2022/05/03 05:15:11;;;;;;;6.97;2.05;;;;;;;;;;5007223;28;20037;-73
2022/05/03 05:17:37;;;;;;;7.55;3.20;;;;;;;;;;5012536;28;20030;-73
2022/05/03 05:20:03;;;;;;;10.80;4.47;;;;;;;;;;5015761;28;20539;-73
2022/05/03 05:22:29;;;;;;;11.63;4.18;;;;;;;;;;5016166;28;20049;-73
2022/05/03 05:24:55;;;;;;;9.30;4.10;;;;;;;;;;5018434;28;20438;-73
2022/05/03 05:27:21;;;;;;;9.73;4.60;;;;;;;;;;5016091;28;20062;-73
2022/05/03 05:29:47;;;;;;;11.65;4.82;;;;;;;;;;5020510;28;20029;-74
2022/05/03 05:32:13;;;;;;;11.15;4.80;;;;;;;;;;5021213;28;20034;-73
2022/05/03 05:34:39;;;;;;;11.07;4.60;;;;;;;;;;5022072;28;20760;-74
2022/05/03 05:37:05;;;;;;;17.38;5.68;;;;;;;;;;5015412;28;20060;-73
2022/05/03 05:39:32;;;;;;;11.63;4.80;;;;;;;;;;5017557;28;20133;-73
2022/05/03 05:41:59;;;;;;;10.93;4.97;;;;;;;;;;5008138;28;20030;-73
2022/05/03 05:44:28;;;;;;;14.10;5.43;;;;;;;;;;5015927;28;20037;-73
2022/05/03 05:46:54;;;;;;;11.80;5.07;;;;;;;;;;5010765;28;20259;-74
2022/05/03 05:49:20;;;;;;;11.98;4.97;;;;;;;;;;5016393;28;20033;-73
2022/05/03 05:51:46;;;;;;;11.70;5.07;;;;;;;;;;5019011;28;20073;-73
2022/05/03 05:54:12;;;;;;;14.73;5.13;;;;;;;;;;5015140;28;20026;-73
2022/05/03 05:56:41;;;;;;;17.50;5.53;;;;;;;;;;5012866;28;20034;-73
2022/05/03 05:59:07;;;;;;;15.95;6.13;;;;;;;;;;5011985;28;20116;-73
2022/05/03 06:01:40;;;;;;;15.50;6.07;;;;;;;;;;5016979;28;20665;-73
2022/05/03 06:04:06;;;;;;;12.45;6.22;;;;;;;;;;5011369;28;20147;-73
2022/05/03 06:06:33;;;;;;;14.50;6.15;;;;;;;;;;5015860;28;20034;-73
2022/05/03 06:09:03;;;;;;;14.90;6.65;;;;;;;;;;5015295;28;20037;-73
2022/05/03 06:11:29;;;;;;;21.60;6.10;;;;;;;;;;5018328;28;20049;-73
2022/05/03 06:13:55;;;;;;;19.30;6.68;;;;;;;;;;5016288;28;20034;-73
2022/05/03 06:16:21;;;;;;;18.42;6.28;;;;;;;;;;5011164;28;20709;-73
2022/05/03 06:18:47;;;;;;;11.90;6.32;;;;;;;;;;5019479;28;20037;-73
2022/05/03 06:21:13;;;;;;;11.70;5.13;;;;;;;;;;5015545;28;20378;-73
2022/05/03 06:23:40;;;;;;;13.45;5.65;;;;;;;;;;5020269;28;20520;-73
2022/05/03 06:26:06;;;;;;;11.00;5.20;;;;;;;;;;5020160;28;20117;-73
2022/05/03 06:28:32;;;;;;;11.60;4.88;;;;;;;;;;5011493;28;20069;-73
2022/05/03 06:30:58;;;;;;;15.18;5.10;;;;;;;;;;5025766;28;20034;-73
2022/05/03 06:33:24;;;;;;;11.60;5.32;;;;;;;;;;5017018;28;20087;-73
2022/05/03 06:35:50;;;;;;;15.35;5.53;;;;;;;;;;5013739;28;20116;-74
2022/05/03 06:38:16;;;;;;;9.68;5.03;;;;;;;;;;5022039;28;20074;-73
2022/05/03 06:40:42;;;;;;;12.88;4.72;;;;;;;;;;5012143;28;20103;-73
2022/05/03 06:43:09;;;;;;;15.10;5.50;;;;;;;;;;5014653;28;20088;-73
2022/05/03 06:45:35;;;;;;;11.85;5.18;;;;;;;;;;5016842;28;20546;-73
2022/05/03 06:48:01;;;;;;;12.75;4.65;;;;;;;;;;5018525;28;20045;-73
2022/05/03 06:50:29;;;;;;;9.38;4.70;;;;;;;;;;5014405;28;20530;-73
2022/05/03 06:52:55;;;;;;;14.13;4.47;;;;;;;;;;5018151;28;20030;-73
2022/05/03 06:55:22;;;;;;;11.50;4.68;;;;;;;;;;5017602;28;20072;-74
2022/05/03 06:57:48;;;;;;;9.25;4.13;;;;;;;;;;5009701;28;20643;-73
2022/05/03 07:00:15;;;;;;;18.98;5.05;;;;;;;;;;5014194;28;20079;-73
2022/05/03 07:02:44;;;;;;;11.13;4.40;;;;;;;;;;5010435;28;20065;-73
2022/05/03 07:05:10;;;;;;;8.15;4.45;;;;;;;;;;5020361;28;20107;-73
2022/05/03 07:07:38;;;;;;;10.90;5.30;;;;;;;;;;5014839;28;20411;-73
2022/05/03 07:10:05;;;;;;;9.02;4.10;;;;;;;;;;5025944;28;20076;-73
2022/05/03 07:12:32;;;;;;;11.60;5.03;;;;;;;;;;5018591;28;20033;-73
2022/05/03 07:15:01;;;;;;;10.77;4.45;;;;;;;;;;5024931;28;20034;-73
2022/05/03 07:22:58;;;;;;;10.80;5.70;;;;;;;;;;5021063;28;20071;-73
2022/05/03 07:25:24;;;;;;;12.73;4.68;;;;;;;;;;5022500;28;20033;-73
2022/05/03 07:27:51;;;;;;;13.48;6.00;;;;;;;;;;5012629;28;20050;-73
2022/05/03 07:30:18;;;;;;;15.05;4.82;;;;;;;;;;5022853;28;20649;-73
2022/05/03 07:32:44;;;;;;;11.70;5.10;;;;;;;;;;5014243;28;20025;-73
2022/05/03 07:35:11;;;;;;;12.90;5.00;;;;;;;;;;5022887;28;20068;-73
2022/05/03 07:37:37;;;;;;;12.68;5.20;;;;;;;;;;5011806;28;20049;-73
2022/05/03 07:40:04;;;;;;;15.13;4.97;;;;;;;;;;5015540;28;20037;-74
2022/05/03 07:42:30;;;;;;;6.97;3.65;;;;;;;;;;5017437;28;20112;-73
2022/05/03 07:44:56;;;;;;;7.82;3.40;;;;;;;;;;5018182;28;20113;-73
2022/05/03 07:47:22;;;;;;;7.55;3.05;;;;;;;;;;5024949;28;20500;-74
2022/05/03 07:49:48;;;;;;;14.38;4.20;;;;;;;;;;5019061;28;20025;-73
2022/05/03 07:52:14;;;;;;;10.45;3.15;;;;;;;;;;5027405;28;20115;-73
2022/05/03 07:54:44;;;;;;;8.70;4.20;;;;;;;;;;5018015;28;20101;-73
2022/05/03 07:57:12;;;;;;;13.18;5.68;;;;;;;;;;5021030;28;20072;-73
2022/05/03 07:59:38;;;;;;;16.13;6.68;;;;;;;;;;5016717;28;20578;-73
2022/05/03 08:02:04;;;;;;;10.00;4.68;;;;;;;;;;5019701;28;20475;-73
2022/05/03 08:04:30;;;;;;;11.70;5.50;;;;;;;;;;5015840;28;20041;-73
2022/05/03 08:06:56;;;;;;;18.73;5.13;;;;;;;;;;5023827;28;20042;-74
2022/05/03 08:09:22;;;;;;;14.15;5.22;;;;;;;;;;5022447;28;20030;-73
2022/05/03 08:11:48;;;;;;;11.63;5.03;;;;;;;;;;5021411;28;20038;-73
2022/05/03 08:14:14;;;;;;;12.40;4.22;;;;;;;;;;5022215;28;20029;-73
2022/05/03 08:16:40;;;;;;;11.10;4.38;;;;;;;;;;5020673;28;20045;-73
2022/05/03 08:19:06;;;;;;;9.93;3.95;;;;;;;;;;5019310;28;20052;-73
2022/05/03 08:21:35;;;;;;;12.35;4.63;;;;;;;;;;5017613;28;20856;-73
2022/05/03 08:24:01;;;;;;;12.60;4.30;;;;;;;;;;5020019;28;20072;-74
2022/05/03 08:26:27;;;;;;;12.10;4.70;;;;;;;;;;5022606;28;20068;-73
2022/05/03 08:28:53;;;;;;;9.85;3.50;;;;;;;;;;5017865;28;20021;-73
2022/05/03 08:31:19;;;;;;;8.30;4.03;;;;;;;;;;5021186;28;20048;-73
2022/05/03 08:33:45;;;;;;;7.00;3.72;;;;;;;;;;5019525;28;20025;-74
2022/05/03 08:36:11;;;;;;;9.00;3.15;;;;;;;;;;5015772;28;20120;-73
2022/05/03 08:44:07;;;;;;;5.15;2.42;;;;;;;;;;5024040;28;20081;-74
2022/05/03 08:46:34;;;;;;;4.15;1.70;;;;;;;;;;5022558;28;20090;-73
2022/05/03 08:49:02;;;;;;;7.00;2.35;;;;;;;;;;5016572;28;20116;-74
2022/05/03 08:51:29;;;;;;;4.60;2.10;;;;;;;;;;5018907;28;20067;-73
2022/05/03 08:53:55;;;;;;;7.13;1.80;;;;;;;;;;5019393;28;20040;-74
2022/05/03 08:56:22;;;;;;;5.60;2.20;;;;;;;;;;5026460;28;20131;-74
2022/05/03 08:58:48;;;;;;;6.40;2.15;;;;;;;;;;5014630;28;20033;-73
2022/05/03 09:01:15;;;;;;;5.35;2.65;;;;;;;;;;5025804;28;20036;-74
2022/05/03 09:03:41;;;;;;;6.28;2.20;;;;;;;;;;5015027;28;20484;-73
2022/05/03 09:06:07;;;;;;;7.88;3.33;;;;;;;;;;5015226;28;20541;-74
2022/05/03 09:08:34;;;;;;;8.20;3.08;;;;;;;;;;5011399;28;20072;-73
2022/05/03 09:11:11;;;;;;;7.50;2.53;;;;;;;;;;5017293;28;20033;-74
2022/05/03 09:13:37;;;;;;;11.48;2.47;;;;;;;;;;5018478;28;20696;-74
2022/05/03 09:16:11;;;;;;;9.27;2.40;;;;;;;;;;5015555;28;20038;-74
2022/05/03 09:18:38;;;;;;;4.88;2.00;;;;;;;;;;5020222;28;20038;-74
2022/05/03 09:24:03;;;;;;;6.03;2.20;;;;;;;;;;5013811;28;20055;-73
2022/05/03 09:26:30;;;;;;;7.85;2.05;;;;;;;;;;5017709;28;20041;-74
2022/05/03 09:29:01;;;;;;;5.88;1.88;;;;;;;;;;5016796;28;20192;-73
2022/05/03 09:31:30;;;;;;;10.98;2.08;;;;;;;;;;5016521;28;20033;-73
2022/05/03 09:33:57;;;;;;;3.58;1.70;;;;;;;;;;5016426;28;20033;-73
2022/05/03 09:36:23;;;;;;;5.57;1.63;;;;;;;;;;5021674;28;20121;-74
2022/05/03 09:38:54;;;;;;;4.63;1.60;;;;;;;;;;5018290;28;20029;-73
2022/05/03 09:41:21;;;;;;;6.07;1.88;;;;;;;;;;5014689;28;20048;-73
2022/05/03 09:44:05;;;;;;;5.82;1.77;;;;;;;;;;5015592;28;20029;-73
2022/05/03 09:46:49;;;;;;;6.35;1.90;;;;;;;;;;5014679;28;20038;-73
2022/05/03 09:49:17;;;;;;;6.07;1.85;;;;;;;;;;5031703;28;20028;-74
2022/05/03 09:51:43;;;;;;;8.48;2.35;;;;;;;;;;5013739;28;20048;-73
2022/05/03 09:54:10;;;;;;;7.20;2.97;;;;;;;;;;5015802;28;20041;-74
2022/05/03 09:56:37;;;;;;;6.03;1.98;;;;;;;;;;5021645;28;20037;-73
2022/05/03 09:59:06;;;;;;;5.97;2.25;;;;;;;;;;5017055;28;20403;-74
2022/05/03 10:01:34;;;;;;;6.55;2.20;;;;;;;;;;5012505;28;20116;-73
2022/05/03 10:04:01;;;;;;;6.05;2.58;;;;;;;;;;5017172;28;20034;-73
2022/05/03 10:06:29;;;;;;;6.47;2.50;;;;;;;;;;5017857;28;20183;-74
2022/05/03 10:08:56;;;;;;;14.57;2.92;;;;;;;;;;5014083;28;20037;-74
2022/05/03 10:11:26;;;;;;;8.90;2.50;;;;;;;;;;5020621;28;20383;-74
2022/05/03 10:13:53;;;;;;;6.80;2.20;;;;;;;;;;5023132;28;20541;-74
2022/05/03 10:21:55;;;;;;;6.63;2.42;;;;;;;;;;5013792;28;20520;-73
2022/05/03 10:24:21;;;;;;;7.95;2.10;;;;;;;;;;5021065;28;20033;-73
2022/05/03 10:26:54;;;;;;;5.82;2.13;;;;;;;;;;5014367;28;20088;-74
2022/05/03 10:29:21;;;;;;;7.65;2.35;;;;;;;;;;5014582;28;20022;-74
2022/05/03 10:31:58;;;;;;;7.05;2.30;;;;;;;;;;5019057;28;20033;-74
2022/05/03 10:34:42;;;;;;;10.05;2.50;;;;;;;;;;5018398;28;20045;-74
2022/05/03 10:37:19;;;;;;;7.53;2.70;;;;;;;;;;5013776;28;20052;-74
2022/05/03 10:39:45;;;;;;;8.60;2.60;;;;;;;;;;5012550;28;20038;-73
2022/05/03 10:42:12;;;;;;;7.10;2.80;;;;;;;;;;5017703;28;20144;-73
2022/05/03 10:44:46;;;;;;;7.00;2.55;;;;;;;;;;5013887;28;20056;-74
2022/05/03 10:47:13;;;;;;;9.45;2.05;;;;;;;;;;5024194;28;20037;-73
2022/05/03 10:49:58;;;;;;;8.68;2.30;;;;;;;;;;5016930;28;20727;-74
2022/05/03 10:52:24;;;;;;;7.32;2.20;;;;;;;;;;5017469;28;20033;-74
2022/05/03 10:55:06;;;;;;;6.40;2.38;;;;;;;;;;5011165;28;20916;-74
2022/05/03 10:57:32;;;;;;;;;;;;;;;;;;5015618;28;20037;-74
2022/05/03 10:59:58;;;;;;;6.70;2.60;;;;;;;;;;5030264;28;20324;-73
2022/05/03 11:02:24;;;;;;;7.22;2.15;;;;;;;;;;5021187;28;20033;-74
2022/05/03 11:05:08;;;;;;;5.47;1.77;;;;;;;;;;5011252;28;20046;-74
2022/05/03 11:07:36;;;;;;;12.75;1.73;;;;;;;;;;5014852;28;20057;-74
2022/05/03 11:10:21;;;;;;;8.55;2.10;;;;;;;;;;5027656;28;20141;-74
2022/05/03 11:12:50;;;;;;;8.52;2.33;;;;;;;;;;5019374;28;20033;-74
2022/05/03 11:15:16;;;;;;;6.28;1.80;;;;;;;;;;5010038;28;20884;-74
2022/05/03 11:17:42;;;;;;;5.85;1.90;;;;;;;;;;5011348;28;20107;-74
2022/05/03 11:20:08;;;;;;;7.53;1.83;;;;;;;;;;5019979;28;20056;-74
2022/05/03 11:22:36;;;;;;;5.68;1.77;;;;;;;;;;5010638;28;20841;-74
2022/05/03 11:25:07;;;;;;;4.38;1.27;;;;;;;;;;5013949;28;20220;-74
2022/05/03 11:27:34;;;;;;;3.28;0.80;;;;;;;;;;5015404;28;20076;-74
2022/05/03 11:30:03;;;;;;;5.43;1.48;;;;;;;;;;5010775;28;20044;-74
2022/05/03 11:32:39;;;;;;;2.13;1.17;;;;;;;;;;5016610;28;20034;-74
2022/05/03 11:35:06;;;;;;;3.78;1.17;;;;;;;;;;5024126;28;20159;-74
2022/05/03 11:37:33;;;;;;;5.70;1.02;;;;;;;;;;5011384;28;20101;-74
2022/05/03 11:40:06;;;;;;;4.07;1.20;;;;;;;;;;5025766;28;20128;-74
2022/05/03 11:42:36;;;;;;;6.68;1.23;;;;;;;;;;5021097;28;20094;-74
2022/05/03 11:45:02;;;;;;;7.63;1.35;;;;;;;;;;5017099;28;20091;-74
2022/05/03 11:47:29;;;;;;;6.40;1.25;;;;;;;;;;5019512;28;20119;-74
2022/05/03 11:49:57;;;;;;;3.33;0.90;;;;;;;;;;5017380;28;20063;-73
2022/05/03 11:57:55;;;;;;;2.60;0.60;;;;;;;;;;5011855;28;20060;-74
2022/05/03 12:00:21;;;;;;;3.42;0.50;;;;;;;;;;5013362;28;20037;-74
2022/05/03 12:02:47;;;;;;;4.72;0.68;;;;;;;;;;5010590;28;20029;-74
2022/05/03 12:05:18;;;;;;;4.65;0.60;;;;;;;;;;5013383;28;20447;-74
2022/05/03 12:07:47;;;;;;;4.63;0.52;;;;;;;;;;5009891;28;20033;-74
2022/05/03 12:10:20;;;;;;;5.15;0.60;;;;;;;;;;5013809;28;20037;-74
2022/05/03 12:13:07;;;;;;;4.53;0.52;;;;;;;;;;5014852;28;20174;-74
2022/05/03 12:15:35;;;;;;;3.08;0.50;;;;;;;;;;5016135;28;20083;-74
2022/05/03 12:18:03;;;;;;;2.08;0.40;;;;;;;;;;5017906;28;20120;-74
2022/05/03 12:20:49;;;;;;;6.40;0.40;;;;;;;;;;5012936;28;20029;-74
2022/05/03 12:23:16;;;;;;;2.10;0.40;;;;;;;;;;5014126;28;20479;-74
2022/05/03 12:25:43;;;;;;;2.35;0.60;;;;;;;;;;5011498;28;20057;-74
2022/05/03 12:28:09;;;;;;;2.83;0.40;;;;;;;;;;5013229;28;20054;-74
2022/05/03 12:30:36;;;;;;;4.47;0.60;;;;;;;;;;5014715;28;20034;-74
2022/05/03 12:33:04;;;;;;;3.30;0.55;;;;;;;;;;5015845;28;20417;-74
2022/05/03 12:35:31;;;;;;;1.58;0.50;;;;;;;;;;5013435;28;20056;-74
2022/05/03 12:37:57;;;;;;;1.52;0.50;;;;;;;;;;5019495;28;20042;-74
2022/05/03 12:40:28;;;;;;;3.58;0.50;;;;;;;;;;5018789;28;20034;-73
2022/05/03 12:42:54;;;;;;;2.58;0.50;;;;;;;;;;5019331;28;20092;-74
2022/05/03 12:45:29;;;;;;;1.88;0.47;;;;;;;;;;5028575;28;20416;-74
2022/05/03 12:47:55;;;;;;;2.53;0.60;;;;;;;;;;5021715;28;20046;-74
2022/05/03 12:50:21;;;;;;;5.80;0.77;;;;;;;;;;5017393;28;20033;-74
2022/05/03 12:52:47;;;;;;;5.72;0.82;;;;;;;;;;5017452;28;20459;-74
2022/05/03 12:55:13;;;;;;;3.15;0.80;;;;;;;;;;5017243;28;20030;-74
2022/05/03 13:00:24;;;;;;;1.85;0.60;;;;;;;;;;5015976;28;20060;-74
2022/05/03 13:02:50;;;;;;;3.58;0.70;;;;;;;;;;5014301;28;20069;-74
2022/05/03 13:05:16;;;;;;;4.68;0.68;;;;;;;;;;5018228;28;20946;-74
2022/05/03 13:07:42;;;;;;;2.80;0.80;;;;;;;;;;5010239;28;20045;-74
2022/05/03 13:10:08;;;;;;;6.93;1.05;;;;;;;;;;5018619;28;20026;-74
2022/05/03 13:12:35;;;;;;;4.90;0.80;;;;;;;;;;5017151;28;20131;-74
2022/05/03 13:15:01;;;;;;;1.85;0.60;;;;;;;;;;5017216;28;20026;-74
2022/05/03 13:17:28;;;;;;;2.72;0.63;;;;;;;;;;5019305;28;20051;-74
2022/05/03 13:19:54;;;;;;;4.78;0.70;;;;;;;;;;5017642;28;20046;-74
2022/05/03 13:22:20;;;;;;;3.67;0.70;;;;;;;;;;5017551;28;20048;-74
2022/05/03 13:24:46;;;;;;;7.32;1.02;;;;;;;;;;5018089;28;20801;-74
2022/05/03 13:27:12;;;;;;;3.05;0.90;;;;;;;;;;5021785;28;20455;-74
2022/05/03 13:29:38;;;;;;;7.45;1.98;;;;;;;;;;5018414;28;20608;-74
2022/05/03 13:32:04;;;;;;;9.05;1.48;;;;;;;;;;5013648;28;20038;-74
2022/05/03 13:34:30;;;;;;;12.05;1.65;;;;;;;;;;5019330;28;20025;-74
2022/05/03 13:42:26;;;;;;;8.52;1.58;;;;;;;;;;5011552;28;20080;-74
2022/05/03 13:44:52;;;;;;;6.25;1.60;;;;;;;;;;5016342;28;20033;-74
2022/05/03 13:47:18;;;;;;;8.05;1.38;;;;;;;;;;5014335;28;20045;-74
2022/05/03 13:49:44;;;;;;;3.88;1.25;;;;;;;;;;5018849;28;20377;-74
2022/05/03 13:52:10;;;;;;;5.65;1.20;;;;;;;;;;5024695;28;20041;-74
2022/05/03 13:54:36;;;;;;;5.75;1.45;;;;;;;;;;5015229;28;20156;-74
2022/05/03 13:57:02;;;;;;;7.35;1.23;;;;;;;;;;5012623;28;20034;-74
2022/05/03 13:59:28;;;;;;;5.22;1.30;;;;;;;;;;5012363;28;20036;-74
2022/05/03 14:01:54;;;;;;;9.38;1.27;;;;;;;;;;5016368;28;20056;-74
2022/05/03 14:04:20;;;;;;;9.90;1.67;;;;;;;;;;5015982;28;20708;-74
2022/05/03 14:06:46;;;;;;;6.63;1.20;;;;;;;;;;5016792;28;20037;-74
2022/05/03 14:09:12;;;;;;;6.57;1.73;;;;;;;;;;5020131;28;20032;-74
2022/05/03 14:11:38;;;;;;;9.27;1.38;;;;;;;;;;5019132;28;20029;-73
2022/05/03 14:14:05;;;;;;;5.50;1.40;;;;;;;;;;5022314;28;20345;-73
2022/05/03 14:16:31;;;;;;;3.47;1.00;;;;;;;;;;5018357;28;20038;-74
2022/05/03 14:18:58;;;;;;;6.85;1.25;;;;;;;;;;5013088;28;20048;-74
2022/05/03 14:21:24;;;;;;;7.72;1.27;;;;;;;;;;5022791;28;20048;-73
2022/05/03 14:23:51;;;;;;;4.30;1.13;;;;;;;;;;5019936;28;20038;-74
2022/05/03 14:26:18;;;;;;;11.88;1.73;;;;;;;;;;5013522;28;20029;-74
2022/05/03 14:28:46;;;;;;;9.60;1.00;;;;;;;;;;5011421;28;20111;-74
2022/05/03 14:31:12;;;;;;;5.43;1.00;;;;;;;;;;5021792;28;20026;-74
2022/05/03 14:33:38;;;;;;;6.93;1.02;;;;;;;;;;5015176;28;20113;-74
2022/05/03 14:36:04;;;;;;;12.13;1.25;;;;;;;;;;5016779;28;20543;-74
2022/05/03 14:38:30;;;;;;;5.55;0.88;;;;;;;;;;5008835;28;20743;-73
2022/05/03 14:40:56;;;;;;;5.78;1.27;;;;;;;;;;5019737;28;20034;-74
2022/05/03 14:43:22;;;;;;;4.45;1.60;;;;;;;;;;5017460;28;20040;-73
2022/05/03 14:45:49;;;;;;;7.28;1.65;;;;;;;;;;5019918;28;20030;-74
2022/05/03 14:48:15;;;;;;;7.93;1.42;;;;;;;;;;5020280;28;20307;-74
2022/05/03 14:50:41;;;;;;;5.15;1.55;;;;;;;;;;5014876;28;20130;-74
2022/05/03 14:53:08;;;;;;;5.60;1.30;;;;;;;;;;5016569;28;20037;-74
2022/05/03 14:55:34;;;;;;;4.85;1.30;;;;;;;;;;5021965;28;20041;-74
2022/05/03 15:03:30;;;;;;;12.82;1.80;;;;;;;;;;5017057;28;20043;-74
2022/05/03 15:05:56;;;;;;;5.40;1.33;;;;;;;;;;5016474;28;20076;-74
2022/05/03 15:08:22;;;;;;;7.43;1.08;;;;;;;;;;5017811;28;20125;-74
2022/05/03 15:10:48;;;;;;;3.53;1.20;;;;;;;;;;5018436;28;20036;-74
2022/05/03 15:13:14;;;;;;;4.03;1.42;;;;;;;;;;5016695;28;20037;-74
2022/05/03 15:15:43;;;;;;;3.35;0.80;;;;;;;;;;5016011;28;20379;-74
2022/05/03 15:18:09;;;;;;;4.18;1.10;;;;;;;;;;5014600;28;20149;-74
2022/05/03 15:20:37;;;;;;;4.38;1.10;;;;;;;;;;5013488;28;20030;-74
2022/05/03 15:25:48;;;;;;;3.65;0.95;;;;;;;;;;5014648;28;20041;-74
2022/05/03 15:28:16;;;;;;;5.05;1.10;;;;;;;;;;5016559;28;20573;-74
2022/05/03 15:30:44;;;;;;;6.22;1.10;;;;;;;;;;5015183;28;20036;-74
2022/05/03 15:33:10;;;;;;;6.57;1.00;;;;;;;;;;5011529;28;20068;-74
2022/05/03 15:35:36;;;;;;;4.18;0.93;;;;;;;;;;5013936;28;20044;-74
2022/05/03 15:38:03;;;;;;;3.58;1.30;;;;;;;;;;5011397;28;20042;-74
2022/05/03 15:40:29;;;;;;;4.05;1.13;;;;;;;;;;5015249;28;20069;-74